createdAt,value
2019-03-05T00:00:55.535Z,6.90
2019-03-05T00:03:24.955Z,6.90
2019-03-05T00:05:54.279Z,6.90
2019-03-05T00:08:23.586Z,6.90
2019-03-05T00:10:53.006Z,6.90
2019-03-05T00:13:22.360Z,7.00
2019-03-05T00:15:52.724Z,7.00
2019-03-05T00:18:22.044Z,7.00
2019-03-05T00:20:51.362Z,7.00
2019-03-05T00:23:44.580Z,7.10
2019-03-05T00:26:14.043Z,7.10
2019-03-05T00:28:51.942Z,7.00
2019-03-05T00:31:24.373Z,7.00
2019-03-05T00:33:59.380Z,7.00
2019-03-05T00:36:34.712Z,7.00
2019-03-05T00:39:18.776Z,7.00
2019-03-05T00:41:59.638Z,7.00
2019-03-05T00:44:56.189Z,7.00
2019-03-05T00:47:40.788Z,7.10
2019-03-05T00:50:18.902Z,7.10
2019-03-05T00:53:03.154Z,7.10
2019-03-05T00:55:50.429Z,7.10
2019-03-05T00:58:34.280Z,7.10
2019-03-05T01:01:28.720Z,7.20
2019-03-05T01:04:03.814Z,7.20
2019-03-05T01:06:33.133Z,7.20
2019-03-05T01:09:02.473Z,7.20
2019-03-05T01:11:33.392Z,7.20
2019-03-05T01:14:03.082Z,7.30
2019-03-05T01:16:34.044Z,7.30
2019-03-05T01:19:03.465Z,7.20
2019-03-05T01:21:32.780Z,7.30
2019-03-05T01:24:02.106Z,7.30
2019-03-05T01:26:31.435Z,7.20
2019-03-05T01:29:00.814Z,7.10
2019-03-05T01:31:43.934Z,7.00
2019-03-05T01:34:17.662Z,6.90
2019-03-05T01:36:57.343Z,6.70
2019-03-05T01:39:28.318Z,6.60
2019-03-05T01:41:57.632Z,6.50
2019-03-05T01:44:26.957Z,6.50
2019-03-05T01:46:56.272Z,6.40
2019-03-05T01:49:25.599Z,6.30
2019-03-05T01:51:54.907Z,6.20
2019-03-05T01:54:24.242Z,6.20
2019-03-05T01:56:53.611Z,6.20
2019-03-05T01:59:22.940Z,6.20
2019-03-05T02:01:52.257Z,6.10
2019-03-05T02:04:21.571Z,6.10
2019-03-05T02:06:50.892Z,6.10
2019-03-05T02:09:20.215Z,6.00
2019-03-05T02:11:49.535Z,6.00
2019-03-05T02:14:18.855Z,6.10
2019-03-05T02:16:48.204Z,6.10
2019-03-05T02:19:35.532Z,6.10
2019-03-05T02:22:07.505Z,6.10
2019-03-05T02:25:04.558Z,6.10
2019-03-05T02:27:42.756Z,6.10
2019-03-05T02:30:33.286Z,6.10
2019-03-05T02:33:11.836Z,6.20
2019-03-05T02:35:56.262Z,6.10
2019-03-05T02:38:38.101Z,6.10
2019-03-05T02:41:34.646Z,6.10
2019-03-05T02:44:26.554Z,6.10
2019-03-05T02:47:04.454Z,6.00
2019-03-05T02:50:02.627Z,6.00
2019-03-05T02:52:40.866Z,6.00
2019-03-05T02:55:23.310Z,6.10
2019-03-05T02:57:51.609Z,6.00
2019-03-05T03:00:22.571Z,6.00
2019-03-05T03:02:53.546Z,6.00
2019-03-05T03:05:24.590Z,6.00
2019-03-05T03:07:54.971Z,6.00
2019-03-05T03:10:26.052Z,6.00
2019-03-05T03:12:55.361Z,6.00
2019-03-05T03:15:24.693Z,6.00
2019-03-05T03:17:54.073Z,6.00
2019-03-05T03:20:23.589Z,6.00
2019-03-05T03:22:53.064Z,6.10
2019-03-05T03:25:22.738Z,5.90
2019-03-05T03:27:52.380Z,5.80
2019-03-05T03:30:22.309Z,5.70
2019-03-05T03:32:51.819Z,5.70
2019-03-05T03:35:21.355Z,5.60
2019-03-05T03:37:50.732Z,5.50
2019-03-05T03:40:20.524Z,5.40
2019-03-05T03:42:49.861Z,5.40
2019-03-05T03:45:20.673Z,5.60
2019-03-05T03:47:49.991Z,5.70
2019-03-05T03:50:19.306Z,5.70
2019-03-05T03:52:48.778Z,5.70
2019-03-05T03:55:18.200Z,5.70
2019-03-05T03:57:47.681Z,5.80
2019-03-05T04:00:19.351Z,5.90
2019-03-05T04:02:48.766Z,5.90
2019-03-05T04:05:18.175Z,5.90
2019-03-05T04:07:47.580Z,6.00
2019-03-05T04:10:17.146Z,6.00
2019-03-05T04:12:46.492Z,6.00
2019-03-05T04:15:17.536Z,6.10
2019-03-05T04:17:47.024Z,6.10
2019-03-05T04:20:21.810Z,6.10
2019-03-05T04:22:51.139Z,6.10
2019-03-05T04:25:20.506Z,6.10
2019-03-05T04:27:49.868Z,6.10
2019-03-05T04:30:19.190Z,6.10
2019-03-05T04:32:48.525Z,6.10
2019-03-05T04:35:17.854Z,6.10
2019-03-05T04:37:47.174Z,6.00
2019-03-05T04:40:16.515Z,6.00
2019-03-05T04:42:45.899Z,5.90
2019-03-05T04:45:27.967Z,5.80
2019-03-05T04:47:57.326Z,5.80
2019-03-05T04:50:28.283Z,5.90
2019-03-05T04:52:57.661Z,5.90
2019-03-05T04:55:27.041Z,5.90
2019-03-05T04:57:56.369Z,5.90
2019-03-05T05:00:26.150Z,5.80
2019-03-05T05:02:58.268Z,5.90
2019-03-05T05:05:26.619Z,5.90
2019-03-05T05:07:55.948Z,5.90
2019-03-05T05:10:25.279Z,5.90
2019-03-05T05:12:54.614Z,5.90
2019-03-05T05:15:27.007Z,5.90
2019-03-05T05:17:56.370Z,5.80
2019-03-05T05:20:25.854Z,5.80
2019-03-05T05:22:55.175Z,5.80
2019-03-05T05:25:24.942Z,5.80
2019-03-05T05:27:54.258Z,5.90
2019-03-05T05:30:34.923Z,5.90
2019-03-05T05:33:05.203Z,5.90
2019-03-05T05:35:34.770Z,5.90
2019-03-05T05:38:04.466Z,5.90
2019-03-05T05:40:38.128Z,5.90
2019-03-05T05:43:10.359Z,5.80
2019-03-05T05:45:42.598Z,5.70
2019-03-05T05:48:11.935Z,5.60
2019-03-05T05:50:41.271Z,5.60
2019-03-05T05:53:10.623Z,5.60
2019-03-05T05:55:39.966Z,5.60
2019-03-05T05:58:09.369Z,5.60
2019-03-05T06:00:44.243Z,5.60
2019-03-05T06:03:13.586Z,5.50
2019-03-05T06:05:42.896Z,5.50
2019-03-05T06:08:12.243Z,5.40
2019-03-05T06:10:41.569Z,5.30
2019-03-05T06:13:10.895Z,5.30
2019-03-05T06:15:41.202Z,5.30
2019-03-05T06:18:10.520Z,5.20
2019-03-05T06:20:42.446Z,5.20
2019-03-05T06:23:10.933Z,5.20
2019-03-05T06:25:40.269Z,5.20
2019-03-05T06:28:09.670Z,5.40
2019-03-05T06:30:43.620Z,5.70
2019-03-05T06:33:13.012Z,6.10
2019-03-05T06:35:42.327Z,6.10
2019-03-05T06:38:11.670Z,6.10
2019-03-05T06:40:40.983Z,6.10
2019-03-05T06:43:10.324Z,6.50
2019-03-05T06:45:39.650Z,6.90
2019-03-05T06:48:08.970Z,7.00
2019-03-05T06:50:38.292Z,7.50
2019-03-05T06:53:07.630Z,8.00
2019-03-05T06:55:36.962Z,8.60
2019-03-05T06:58:06.347Z,8.50
2019-03-05T07:00:37.388Z,8.50
2019-03-05T07:03:08.454Z,8.40
2019-03-05T07:06:14.265Z,9.10
2019-03-05T07:08:46.870Z,10.20
2019-03-05T07:11:38.602Z,11.30
2019-03-05T07:14:28.930Z,11.30
2019-03-05T07:17:03.892Z,10.30
2019-03-05T07:19:36.471Z,9.40
2019-03-05T07:22:18.011Z,8.80
2019-03-05T07:24:48.536Z,8.80
2019-03-05T07:27:24.055Z,8.70
2019-03-05T07:29:54.916Z,8.70
2019-03-05T07:32:24.264Z,8.90
2019-03-05T07:34:53.585Z,9.40
2019-03-05T07:37:22.906Z,11.20
2019-03-05T07:39:52.228Z,12.70
2019-03-05T07:42:21.553Z,14.00
2019-03-05T07:44:50.973Z,15.20
2019-03-05T07:47:20.382Z,15.50
2019-03-05T07:49:49.731Z,14.80
2019-03-05T07:52:19.040Z,13.80
2019-03-05T07:54:48.401Z,12.60
2019-03-05T07:57:17.724Z,11.20
2019-03-05T07:59:47.059Z,10.30
2019-03-05T08:02:16.375Z,9.70
2019-03-05T08:04:45.775Z,9.20
2019-03-05T08:07:15.153Z,8.80
2019-03-05T08:09:44.518Z,8.50
2019-03-05T08:12:22.492Z,8.50
2019-03-05T08:15:00.848Z,8.50
2019-03-05T08:17:30.187Z,8.80
2019-03-05T08:19:59.598Z,9.70
2019-03-05T08:22:29.949Z,10.20
2019-03-05T08:24:59.291Z,10.20
2019-03-05T08:27:28.623Z,9.90
2019-03-05T08:29:58.008Z,9.50
2019-03-05T08:32:27.324Z,9.10
2019-03-05T08:34:56.715Z,9.00
2019-03-05T08:37:26.031Z,9.00
2019-03-05T08:39:55.383Z,9.30
2019-03-05T08:42:24.748Z,9.00
2019-03-05T08:44:54.073Z,8.90
2019-03-05T08:47:23.581Z,8.90
2019-03-05T08:49:52.897Z,9.00
2019-03-05T08:52:22.295Z,8.70
2019-03-05T08:54:51.620Z,8.50
2019-03-05T08:57:20.935Z,8.50
2019-03-05T08:59:50.301Z,8.30
2019-03-05T09:02:19.611Z,8.20
2019-03-05T09:04:48.956Z,8.10
2019-03-05T09:07:18.590Z,8.10
2019-03-05T09:09:47.911Z,8.20
2019-03-05T09:12:17.223Z,8.20
2019-03-05T09:14:46.552Z,8.20
2019-03-05T09:17:15.883Z,8.10
2019-03-05T09:19:45.238Z,8.00
2019-03-05T09:22:14.571Z,8.00
2019-03-05T09:24:43.891Z,7.90
2019-03-05T09:27:13.211Z,7.80
2019-03-05T09:29:42.555Z,7.80
2019-03-05T09:32:11.869Z,7.70
2019-03-05T09:34:41.195Z,7.60
2019-03-05T09:37:10.537Z,7.50
2019-03-05T09:39:39.920Z,7.40
2019-03-05T09:42:09.305Z,7.40
2019-03-05T09:44:38.660Z,7.30
2019-03-05T09:47:07.971Z,7.30
2019-03-05T09:49:37.294Z,7.40
2019-03-05T09:52:06.620Z,7.50
2019-03-05T09:54:35.938Z,7.40
2019-03-05T09:57:05.250Z,7.20
2019-03-05T09:59:34.647Z,7.10
2019-03-05T10:02:04.337Z,7.20
2019-03-05T10:04:33.768Z,7.00
2019-03-05T10:07:03.079Z,7.00
2019-03-05T10:09:32.416Z,7.00
2019-03-05T10:12:01.745Z,6.90
2019-03-05T10:14:31.079Z,6.90
2019-03-05T10:17:00.439Z,6.90
2019-03-05T10:19:29.746Z,7.00
2019-03-05T10:21:59.087Z,7.10
2019-03-05T10:24:28.467Z,7.10
2019-03-05T10:26:57.864Z,7.10
2019-03-05T10:29:27.283Z,7.00
2019-03-05T10:31:56.603Z,6.90
2019-03-05T10:34:25.916Z,6.90
2019-03-05T10:36:55.235Z,7.00
2019-03-05T10:39:30.478Z,7.10
2019-03-05T10:41:57.223Z,7.30
2019-03-05T10:44:26.551Z,7.40
2019-03-05T10:46:56.265Z,7.20
2019-03-05T10:49:25.668Z,7.00
2019-03-05T10:51:55.055Z,6.90
2019-03-05T10:54:24.446Z,6.80
2019-03-05T10:56:55.086Z,6.90
2019-03-05T10:59:24.460Z,7.10
2019-03-05T11:01:53.957Z,7.30
2019-03-05T11:04:23.258Z,7.50
2019-03-05T11:06:52.581Z,7.60
2019-03-05T11:09:22.671Z,7.90
2019-03-05T11:11:51.993Z,8.10
2019-03-05T11:14:21.398Z,7.90
2019-03-05T11:16:51.415Z,7.70
2019-03-05T11:19:20.739Z,7.80
2019-03-05T11:21:51.104Z,8.20
2019-03-05T11:24:20.434Z,8.60
2019-03-05T11:26:49.760Z,9.00
2019-03-05T11:29:19.094Z,9.20
2019-03-05T11:31:48.574Z,8.80
2019-03-05T11:34:17.885Z,8.20
2019-03-05T11:36:47.224Z,7.60
2019-03-05T11:39:16.871Z,7.20
2019-03-05T11:41:46.410Z,6.90
2019-03-05T11:44:15.729Z,6.70
2019-03-05T11:46:45.228Z,6.60
2019-03-05T11:49:14.563Z,6.40
2019-03-05T11:51:43.914Z,6.40
2019-03-05T11:54:13.221Z,6.40
2019-03-05T11:56:42.598Z,6.50
2019-03-05T11:59:11.934Z,6.50
2019-03-05T12:01:41.336Z,6.70
2019-03-05T12:04:10.676Z,6.80
2019-03-05T12:06:40.067Z,6.90
2019-03-05T12:09:09.481Z,7.00
2019-03-05T12:11:39.028Z,7.10
2019-03-05T12:14:09.435Z,7.20
2019-03-05T12:16:38.827Z,7.00
2019-03-05T12:19:08.220Z,6.80
2019-03-05T12:21:38.504Z,6.70
2019-03-05T12:24:07.819Z,6.70
2019-03-05T12:26:37.150Z,6.90
2019-03-05T12:29:06.577Z,7.10
2019-03-05T12:31:35.890Z,7.10
2019-03-05T12:34:05.240Z,7.00
2019-03-05T12:36:34.615Z,6.90
2019-03-05T12:39:05.102Z,6.90
2019-03-05T12:41:36.051Z,7.10
2019-03-05T12:44:05.577Z,7.10
2019-03-05T12:46:35.880Z,7.30
2019-03-05T12:49:05.378Z,7.60
2019-03-05T12:51:34.696Z,7.70
2019-03-05T12:54:04.024Z,7.90
2019-03-05T12:56:33.423Z,8.10
2019-03-05T12:59:02.738Z,7.90
2019-03-05T13:01:34.786Z,7.80
2019-03-05T13:04:03.076Z,7.50
2019-03-05T13:06:32.383Z,7.30
2019-03-05T13:09:01.711Z,7.20
2019-03-05T13:11:32.696Z,7.20
2019-03-05T13:14:06.101Z,7.20
2019-03-05T13:16:35.293Z,7.30
2019-03-05T13:19:05.395Z,7.30
2019-03-05T13:21:36.036Z,7.40
2019-03-05T13:24:05.622Z,7.50
2019-03-05T13:26:34.936Z,7.70
2019-03-05T13:29:04.304Z,7.90
2019-03-05T13:31:33.695Z,8.00
2019-03-05T13:34:03.083Z,8.20
2019-03-05T13:36:32.395Z,8.40
2019-03-05T13:39:01.720Z,8.40
2019-03-05T13:41:32.719Z,8.40
2019-03-05T13:44:02.080Z,8.60
2019-03-05T13:46:31.392Z,8.70
2019-03-05T13:49:10.675Z,8.60
2019-03-05T13:52:07.651Z,8.20
2019-03-05T13:54:44.001Z,8.00
2019-03-05T13:57:33.240Z,7.90
2019-03-05T14:00:02.566Z,7.80
2019-03-05T14:02:33.586Z,7.90
2019-03-05T14:05:11.599Z,8.10
2019-03-05T14:08:03.529Z,8.50
2019-03-05T14:10:32.955Z,8.80
2019-03-05T14:13:02.460Z,9.00
2019-03-05T14:15:31.839Z,8.80
2019-03-05T14:18:01.167Z,8.50
2019-03-05T14:20:32.161Z,8.30
2019-03-05T14:23:01.575Z,8.20
2019-03-05T14:25:30.976Z,8.30
2019-03-05T14:28:00.375Z,8.30
2019-03-05T14:30:29.785Z,8.30
2019-03-05T14:33:00.841Z,8.30
2019-03-05T14:35:31.437Z,8.30
2019-03-05T14:38:00.852Z,8.30
2019-03-05T14:40:30.880Z,8.10
2019-03-05T14:43:00.482Z,7.90
2019-03-05T14:45:31.480Z,7.80
2019-03-05T14:48:01.195Z,7.70
2019-03-05T14:50:32.435Z,7.60
2019-03-05T14:53:01.899Z,7.50
2019-03-05T14:55:31.340Z,7.40
2019-03-05T14:58:00.755Z,7.30
2019-03-05T15:00:30.112Z,7.40
2019-03-05T15:02:59.537Z,7.50
2019-03-05T15:05:28.946Z,7.70
2019-03-05T15:07:58.354Z,7.60
2019-03-05T15:10:27.977Z,7.60
2019-03-05T15:12:57.318Z,7.50
2019-03-05T15:15:31.268Z,7.50
2019-03-05T15:18:00.646Z,7.50
2019-03-05T15:20:30.069Z,7.60
2019-03-05T15:22:59.523Z,7.80
2019-03-05T15:25:28.873Z,7.90
2019-03-05T15:27:58.327Z,8.10
2019-03-05T15:30:29.075Z,8.20
2019-03-05T15:32:58.803Z,8.20
2019-03-05T15:35:28.170Z,8.10
2019-03-05T15:37:57.498Z,8.10
2019-03-05T15:40:26.824Z,8.00
2019-03-05T15:42:56.186Z,7.90
2019-03-05T15:45:25.637Z,7.90
2019-03-05T15:47:55.155Z,7.90
2019-03-05T15:50:31.165Z,8.00
2019-03-05T15:53:00.587Z,8.00
2019-03-05T15:55:31.852Z,8.00
2019-03-05T15:58:02.789Z,8.00
2019-03-05T16:00:33.071Z,8.20
2019-03-05T16:03:02.516Z,8.40
2019-03-05T16:05:32.068Z,8.30
2019-03-05T16:08:01.613Z,8.20
2019-03-05T16:10:31.142Z,8.30
2019-03-05T16:13:00.547Z,8.30
2019-03-05T16:15:29.945Z,8.20
2019-03-05T16:18:01.408Z,8.10
2019-03-05T16:20:30.277Z,8.00
2019-03-05T16:22:59.621Z,7.90
2019-03-05T16:25:29.008Z,7.80
2019-03-05T16:28:02.244Z,7.80
2019-03-05T16:30:48.900Z,7.70
2019-03-05T16:33:19.860Z,7.60
2019-03-05T16:36:03.997Z,7.50
2019-03-05T16:38:46.871Z,7.50
2019-03-05T16:41:20.907Z,7.40
2019-03-05T16:44:09.500Z,7.20
2019-03-05T16:46:55.792Z,7.10
2019-03-05T16:49:43.019Z,6.90
2019-03-05T16:52:22.998Z,6.80
2019-03-05T16:54:53.944Z,6.70
2019-03-05T16:57:28.095Z,6.70
2019-03-05T17:00:04.859Z,6.60
2019-03-05T17:02:35.988Z,6.50
2019-03-05T17:05:10.752Z,6.40
2019-03-05T17:07:53.682Z,6.30
2019-03-05T17:10:39.469Z,6.10
2019-03-05T17:13:08.819Z,5.90
2019-03-05T17:15:38.131Z,5.80
2019-03-05T17:18:07.482Z,5.60
2019-03-05T17:20:37.036Z,5.60
2019-03-05T17:23:06.548Z,5.50
2019-03-05T17:25:35.989Z,5.50
2019-03-05T17:28:05.422Z,5.30
2019-03-05T17:30:34.750Z,5.30
2019-03-05T17:33:04.418Z,5.20
2019-03-05T17:35:35.085Z,5.20
2019-03-05T17:38:04.732Z,5.20
2019-03-05T17:40:34.140Z,5.10
2019-03-05T17:43:03.455Z,5.00
2019-03-05T17:45:34.151Z,4.90
2019-03-05T17:48:03.480Z,4.90
2019-03-05T17:50:32.872Z,4.80
2019-03-05T17:53:02.478Z,4.80
2019-03-05T17:55:31.814Z,4.80
2019-03-05T17:58:01.687Z,4.90
2019-03-05T18:00:35.788Z,4.90
2019-03-05T18:03:05.843Z,4.80
2019-03-05T18:05:35.201Z,4.80
2019-03-05T18:08:04.766Z,4.70
2019-03-05T18:10:34.266Z,4.70
2019-03-05T18:13:03.664Z,4.60
2019-03-05T18:15:33.175Z,4.60
2019-03-05T18:18:02.491Z,4.50
2019-03-05T18:20:32.386Z,4.40
2019-03-05T18:23:01.804Z,4.40
2019-03-05T18:25:32.193Z,4.30
2019-03-05T18:28:01.680Z,4.20
2019-03-05T18:30:32.139Z,4.20
2019-03-05T18:33:01.691Z,4.10
2019-03-05T18:35:31.030Z,4.00
2019-03-05T18:38:00.427Z,3.90
2019-03-05T18:40:29.899Z,3.90
2019-03-05T18:42:59.243Z,3.80
2019-03-05T18:45:36.768Z,3.80
2019-03-05T18:48:06.475Z,3.80
2019-03-05T18:50:35.842Z,3.70
2019-03-05T18:53:05.900Z,3.70
2019-03-05T18:55:35.214Z,3.60
2019-03-05T18:58:04.553Z,3.60
2019-03-05T19:00:34.887Z,3.50
2019-03-05T19:03:15.310Z,3.60
2019-03-05T19:05:44.811Z,3.50
2019-03-05T19:08:14.192Z,3.40
2019-03-05T19:10:43.554Z,3.20
2019-03-05T19:13:12.947Z,3.20
2019-03-05T19:15:44.219Z,3.10
2019-03-05T19:18:13.590Z,3.00
2019-03-05T19:20:42.982Z,3.00
2019-03-05T19:23:12.397Z,3.00
2019-03-05T19:25:46.772Z,2.90
2019-03-05T19:28:16.192Z,2.80
2019-03-05T19:30:50.627Z,2.80
2019-03-05T19:33:20.038Z,2.80
2019-03-05T19:35:49.352Z,2.70
2019-03-05T19:38:19.071Z,2.70
2019-03-05T19:40:48.843Z,2.80
2019-03-05T19:43:18.186Z,2.70
2019-03-05T19:45:47.499Z,2.70
2019-03-05T19:48:16.862Z,2.70
2019-03-05T19:50:46.419Z,2.70
2019-03-05T19:53:15.779Z,2.70
2019-03-05T19:55:46.235Z,2.70
2019-03-05T19:58:16.512Z,2.60
2019-03-05T20:00:57.125Z,2.60
2019-03-05T20:03:27.420Z,2.60
2019-03-05T20:05:56.861Z,2.50
2019-03-05T20:08:26.208Z,2.50
2019-03-05T20:10:55.854Z,2.40
2019-03-05T20:13:26.231Z,2.30
2019-03-05T20:15:55.633Z,2.20
2019-03-05T20:18:25.522Z,2.30
2019-03-05T20:20:54.857Z,2.30
2019-03-05T20:23:24.475Z,2.40
2019-03-05T20:25:53.855Z,2.40
2019-03-05T20:28:23.181Z,2.40
2019-03-05T20:30:52.491Z,2.40
2019-03-05T20:33:22.061Z,2.40
2019-03-05T20:35:51.724Z,2.40
2019-03-05T20:38:21.140Z,2.30
2019-03-05T20:40:50.463Z,2.30
2019-03-05T20:43:19.950Z,2.30
2019-03-05T20:45:56.225Z,2.30
2019-03-05T20:48:25.588Z,2.40
2019-03-05T20:50:54.969Z,2.30
2019-03-05T20:53:24.300Z,2.30
2019-03-05T20:55:53.687Z,2.20
2019-03-05T20:58:23.013Z,2.20
2019-03-05T21:00:52.458Z,2.10
2019-03-05T21:03:21.899Z,2.00
2019-03-05T21:05:51.220Z,2.00
2019-03-05T21:08:20.699Z,2.00
2019-03-05T21:10:51.289Z,2.00
2019-03-05T21:13:21.006Z,2.10
2019-03-05T21:15:50.383Z,2.00
2019-03-05T21:18:19.761Z,2.00
2019-03-05T21:20:50.063Z,2.00
2019-03-05T21:23:19.656Z,1.90
2019-03-05T21:25:48.987Z,1.90
2019-03-05T21:28:18.401Z,1.80
2019-03-05T21:30:47.779Z,1.70
2019-03-05T21:33:17.104Z,1.60
2019-03-05T21:35:46.507Z,1.60
2019-03-05T21:38:15.816Z,1.50
2019-03-05T21:40:45.168Z,1.50
2019-03-05T21:43:14.563Z,1.50
2019-03-05T21:45:56.095Z,1.60
2019-03-05T21:48:25.404Z,1.60
2019-03-05T21:50:54.724Z,1.50
2019-03-05T21:53:24.243Z,1.50
2019-03-05T21:55:53.635Z,1.50
2019-03-05T21:58:24.054Z,1.70
2019-03-05T22:00:53.416Z,1.90
2019-03-05T22:03:22.799Z,1.80
2019-03-05T22:05:52.123Z,1.80
2019-03-05T22:08:21.733Z,1.70
2019-03-05T22:10:51.599Z,1.70
2019-03-05T22:13:21.051Z,1.60
2019-03-05T22:15:50.433Z,1.60
2019-03-05T22:18:19.773Z,1.60
2019-03-05T22:20:49.263Z,1.60
2019-03-05T22:23:18.595Z,1.50
2019-03-05T22:25:48.000Z,1.40
2019-03-05T22:28:18.287Z,1.50
2019-03-05T22:30:47.626Z,1.50
2019-03-05T22:33:17.007Z,1.40
2019-03-05T22:35:46.329Z,1.40
2019-03-05T22:38:15.648Z,1.40
2019-03-05T22:40:44.967Z,1.40
2019-03-05T22:43:14.283Z,1.50
2019-03-05T22:45:43.691Z,1.40
2019-03-05T22:48:13.061Z,1.40
2019-03-05T22:50:42.406Z,1.40
2019-03-05T22:53:11.723Z,1.40
2019-03-05T22:55:41.332Z,1.40
2019-03-05T22:58:10.666Z,1.50
2019-03-05T23:00:56.503Z,1.50
2019-03-05T23:03:29.499Z,1.50
2019-03-05T23:06:00.290Z,1.40
2019-03-05T23:08:29.608Z,1.50
2019-03-05T23:10:59.207Z,1.60
2019-03-05T23:13:28.586Z,1.80
2019-03-05T23:15:58.459Z,2.00
2019-03-05T23:18:27.855Z,2.00
2019-03-05T23:20:57.193Z,2.20
2019-03-05T23:23:26.518Z,2.40
2019-03-05T23:25:55.938Z,2.40
2019-03-05T23:28:25.711Z,2.50
2019-03-05T23:30:55.032Z,2.50
2019-03-05T23:33:25.028Z,2.50
2019-03-05T23:35:54.531Z,2.50
2019-03-05T23:38:24.911Z,2.50
2019-03-05T23:40:54.291Z,2.60
2019-03-05T23:43:23.634Z,2.70
2019-03-05T23:45:52.962Z,2.60
2019-03-05T23:48:22.291Z,2.50
2019-03-05T23:50:51.707Z,2.40
2019-03-05T23:53:21.035Z,2.30
2019-03-05T23:55:50.355Z,2.20
2019-03-05T23:58:19.687Z,2.20
